Time;durP1;ratioP1;P1;durP2;ratioP2;P2;SDS_P1;SDS_P2;PMS_P1;PMS_P2;Temp;Humidity;BMP_temperature;BMP_pressure;BME280_temperature;BME280_humidity;BME280_pressure;Samples;Min_cycle;Max_cycle;Signal;HPM_P1;HPM_P2
2022/08/24 00:00:21;;;;;;;54.70;49.60;;;20.60;99.90;;;;;;5023674;28;20052;-58
2022/08/24 00:02:48;;;;;;;54.80;49.45;;;20.70;99.90;;;;;;5022520;28;20435;-57
2022/08/24 00:05:15;;;;;;;54.08;49.10;;;20.70;99.90;;;;;;5022912;28;20041;-57
2022/08/24 00:07:41;;;;;;;53.58;48.80;;;20.70;99.90;;;;;;5033801;28;20079;-57
2022/08/24 00:10:09;;;;;;;55.08;49.70;;;20.70;99.90;;;;;;5022637;28;20392;-58
2022/08/24 00:12:35;;;;;;;54.10;49.00;;;20.70;99.90;;;;;;5022030;28;20053;-57
2022/08/24 00:15:02;;;;;;;55.88;50.38;;;20.70;99.90;;;;;;5023352;28;20053;-57
2022/08/24 00:17:27;;;;;;;53.20;48.22;;;20.70;99.90;;;;;;5022487;28;20059;-57
2022/08/24 00:19:53;;;;;;;57.90;52.45;;;20.70;99.90;;;;;;5021012;28;20041;-57
2022/08/24 00:22:19;;;;;;;56.30;50.88;;;20.60;99.90;;;;;;5022874;28;20081;-57
2022/08/24 00:24:45;;;;;;;60.22;54.15;;;20.60;99.90;;;;;;5022931;28;20053;-58
2022/08/24 00:27:11;;;;;;;58.17;52.85;;;20.40;99.90;;;;;;5004004;28;20045;-57
2022/08/24 00:29:37;;;;;;;59.15;53.63;;;20.30;99.90;;;;;;5022489;28;20044;-58
2022/08/24 00:32:04;;;;;;;58.53;53.00;;;20.20;99.90;;;;;;5022834;28;20502;-57
2022/08/24 00:34:30;;;;;;;58.78;53.28;;;20.10;99.90;;;;;;5022568;28;20056;-57
2022/08/24 00:36:56;;;;;;;59.70;53.92;;;20.10;99.90;;;;;;5022342;28;20412;-58
2022/08/24 00:39:22;;;;;;;60.53;54.88;;;20.00;99.90;;;;;;5022254;28;20041;-57
2022/08/24 00:41:49;;;;;;;59.85;54.10;;;19.90;99.90;;;;;;5022742;28;20071;-57
2022/08/24 00:44:17;;;;;;;59.72;54.17;;;19.90;99.90;;;;;;5021582;28;20037;-57
2022/08/24 00:47:10;;;;;;;60.60;54.95;;;19.90;99.90;;;;;;5022180;28;20084;-57
2022/08/24 00:49:39;;;;;;;59.72;53.90;;;19.90;99.90;;;;;;5021569;28;20609;-58
2022/08/24 00:52:14;;;;;;;56.95;51.88;;;19.80;99.90;;;;;;5022034;28;20092;-57
2022/08/24 00:54:47;;;;;;;54.80;49.72;;;19.90;99.90;;;;;;5021783;28;20069;-57
2022/08/24 00:57:15;;;;;;;53.13;48.40;;;19.90;99.90;;;;;;5021394;28;20697;-57
2022/08/24 00:59:49;;;;;;;52.88;47.90;;;20.10;99.90;;;;;;5004336;28;20057;-57
2022/08/24 01:02:23;;;;;;;55.20;50.20;;;20.10;99.90;;;;;;5021547;28;20595;-57
2022/08/24 01:04:55;;;;;;;56.50;50.80;;;20.10;99.90;;;;;;5021852;28;20323;-57
2022/08/24 01:07:23;;;;;;;58.33;52.72;;;19.90;99.90;;;;;;5033233;28;20045;-57
2022/08/24 01:09:51;;;;;;;58.50;52.95;;;19.90;99.90;;;;;;5029084;23;20196;-59
2022/08/24 01:12:17;;;;;;;57.72;52.03;;;19.80;99.90;;;;;;4991052;28;20416;-58
2022/08/24 01:14:43;;;;;;;56.17;50.78;;;19.70;99.90;;;;;;5000818;28;20049;-58
2022/08/24 01:19:56;;;;;;;58.05;52.47;;;19.70;99.90;;;;;;5002437;28;20042;-58
2022/08/24 01:22:39;;;;;;;54.03;49.10;;;19.70;99.90;;;;;;5002293;28;20045;-58
2022/08/24 01:25:06;;;;;;;57.40;52.10;;;19.80;99.90;;;;;;5002587;28;20125;-57
2022/08/24 01:27:34;;;;;;;57.65;51.95;;;19.70;99.90;;;;;;5002418;28;20062;-58
2022/08/24 01:30:03;;;;;;;53.92;48.88;;;19.70;99.90;;;;;;5002074;28;20053;-58
2022/08/24 01:32:29;;;;;;;52.10;47.25;;;19.70;99.90;;;;;;4984876;28;20053;-58
2022/08/24 01:34:56;;;;;;;56.40;51.00;;;19.70;99.90;;;;;;5001700;28;20129;-57
2022/08/24 01:37:22;;;;;;;56.70;51.30;;;19.70;99.90;;;;;;5001835;28;20061;-57
2022/08/24 01:39:51;;;;;;;53.92;48.95;;;19.60;99.90;;;;;;5002025;28;20046;-59
2022/08/24 01:42:17;;;;;;;53.17;48.25;;;19.50;99.90;;;;;;5002098;28;20061;-58
2022/08/24 01:44:44;;;;;;;53.10;48.10;;;19.60;99.90;;;;;;5002065;28;20045;-57
2022/08/24 01:47:13;;;;;;;51.28;46.35;;;19.50;99.90;;;;;;5002043;28;20046;-57
2022/08/24 01:49:46;;;;;;;54.60;49.35;;;19.50;99.90;;;;;;5002228;28;20049;-58
2022/08/24 01:52:16;;;;;;;54.35;48.90;;;19.50;99.90;;;;;;5002081;28;20084;-57
2022/08/24 01:54:42;;;;;;;54.42;49.35;;;19.50;99.90;;;;;;4984205;28;20049;-58
2022/08/24 01:57:09;;;;;;;52.10;47.28;;;19.40;99.90;;;;;;5000937;28;20034;-57
2022/08/24 01:59:34;;;;;;;53.50;48.60;;;19.40;99.90;;;;;;5001363;28;20072;-57
2022/08/24 02:02:06;;;;;;;53.22;48.28;;;19.40;99.90;;;;;;5001714;28;20046;-57
2022/08/24 02:04:34;;;;;;;54.05;48.95;;;19.50;99.90;;;;;;5002309;28;20049;-58
2022/08/24 02:06:59;;;;;;;56.58;51.13;;;19.40;99.90;;;;;;5001420;28;20068;-57
2022/08/24 02:09:25;;;;;;;57.95;52.45;;;19.30;99.90;;;;;;5001348;28;20484;-57
2022/08/24 02:11:51;;;;;;;58.45;52.75;;;19.10;99.90;;;;;;5000694;28;20494;-57
2022/08/24 02:14:19;;;;;;;55.88;50.30;;;19.10;99.90;;;;;;4984425;28;20068;-57
2022/08/24 02:16:44;;;;;;;57.72;52.13;;;19.10;99.90;;;;;;5001228;28;20397;-57
2022/08/24 02:19:10;;;;;;;56.92;51.42;;;18.90;99.90;;;;;;5001915;28;20065;-58
2022/08/24 02:21:36;;;;;;;56.72;50.97;;;18.90;99.90;;;;;;5001908;28;20646;-58
2022/08/24 02:24:02;;;;;;;57.05;51.55;;;18.80;99.90;;;;;;5002122;28;20661;-58
2022/08/24 02:26:28;;;;;;;57.72;51.97;;;18.80;99.90;;;;;;4984165;28;20444;-57
2022/08/24 02:28:54;;;;;;;59.15;53.30;;;18.60;99.90;;;;;;5001603;28;20099;-57
2022/08/24 02:31:19;;;;;;;59.58;53.72;;;18.40;99.90;;;;;;5005612;28;20045;-57
2022/08/24 02:33:45;;;;;;;63.72;57.42;;;18.40;99.90;;;;;;5004577;28;20037;-58
2022/08/24 02:36:12;;;;;;;61.35;55.55;;;18.40;99.90;;;;;;5005605;28;20049;-58
2022/08/24 02:38:38;;;;;;;61.10;54.63;;;18.40;99.90;;;;;;5004928;28;20165;-57
2022/08/24 02:41:04;;;;;;;64.10;57.80;;;18.40;99.90;;;;;;5005913;28;20121;-58
2022/08/24 02:43:30;;;;;;;67.18;60.28;;;18.40;99.90;;;;;;5004290;28;20038;-58
2022/08/24 02:45:56;;;;;;;64.75;58.28;;;18.30;99.90;;;;;;5005419;28;20095;-58
2022/08/24 02:48:22;;;;;;;66.50;59.85;;;18.40;99.90;;;;;;5005509;28;20049;-58
2022/08/24 02:50:50;;;;;;;64.45;58.17;;;18.40;99.90;;;;;;5004268;28;20192;-58
2022/08/24 02:53:19;;;;;;;68.60;61.80;;;18.60;99.90;;;;;;5005333;28;20052;-59
2022/08/24 02:55:45;;;;;;;72.05;64.68;;;18.80;99.90;;;;;;5004897;28;20468;-58
2022/08/24 02:58:13;;;;;;;65.90;59.10;;;18.70;99.90;;;;;;5003592;28;20045;-58
2022/08/24 03:00:40;;;;;;;64.47;58.35;;;18.70;99.90;;;;;;4971260;28;21017;-57
2022/08/24 03:03:07;;;;;;;63.90;57.47;;;18.70;99.90;;;;;;5005087;28;20856;-58
2022/08/24 03:05:34;;;;;;;67.85;61.25;;;18.60;99.90;;;;;;5004943;28;20057;-58
2022/08/24 03:07:59;;;;;;;66.90;60.33;;;18.60;99.90;;;;;;5000089;28;20034;-57
2022/08/24 03:10:25;;;;;;;69.97;62.83;;;18.60;99.90;;;;;;5004854;28;20061;-58
2022/08/24 03:12:52;;;;;;;68.20;61.20;;;18.60;99.90;;;;;;5003634;28;20586;-58
2022/08/24 03:15:20;;;;;;;70.75;63.63;;;18.50;99.90;;;;;;5004475;28;20037;-59
2022/08/24 03:17:46;;;;;;;69.47;62.58;;;18.50;99.90;;;;;;5004684;28;20407;-58
2022/08/24 03:20:14;;;;;;;67.30;60.53;;;18.40;99.90;;;;;;5004830;28;20165;-58
2022/08/24 03:22:41;;;;;;;67.07;60.40;;;18.40;99.90;;;;;;5003804;28;20053;-58
2022/08/24 03:25:08;;;;;;;70.20;63.17;;;18.50;99.90;;;;;;5004637;28;20420;-58
2022/08/24 03:27:34;;;;;;;71.38;64.07;;;18.50;99.90;;;;;;5004220;28;20041;-59
2022/08/24 03:30:00;;;;;;;72.03;64.32;;;18.40;99.90;;;;;;5004898;28;20052;-58
2022/08/24 03:32:26;;;;;;;68.22;61.03;;;18.30;99.90;;;;;;5003809;28;20492;-58
2022/08/24 03:34:53;;;;;;;70.13;63.10;;;18.20;99.90;;;;;;5004601;28;20045;-58
2022/08/24 03:37:19;;;;;;;68.57;61.92;;;18.20;99.90;;;;;;5004483;28;20050;-58
2022/08/24 03:39:46;;;;;;;71.07;64.03;;;18.10;99.90;;;;;;5003102;28;20042;-59
2022/08/24 03:42:13;;;;;;;71.75;64.30;;;18.20;99.90;;;;;;5002880;28;20045;-58
2022/08/24 03:44:40;;;;;;;66.55;59.78;;;18.20;99.90;;;;;;5004295;28;20042;-57
2022/08/24 03:47:08;;;;;;;68.95;61.95;;;18.20;99.90;;;;;;5004250;28;20495;-57
2022/08/24 03:49:34;;;;;;;68.50;61.92;;;18.20;99.90;;;;;;4986762;28;20124;-58
2022/08/24 03:52:00;;;;;;;70.03;62.58;;;18.20;99.90;;;;;;5004509;28;20237;-58
2022/08/24 03:54:26;;;;;;;70.47;63.25;;;18.20;99.90;;;;;;5003833;28;20125;-57
2022/08/24 03:56:52;;;;;;;71.43;63.95;;;18.20;99.90;;;;;;5002901;28;20497;-58
2022/08/24 03:59:17;;;;;;;69.13;61.83;;;18.20;99.90;;;;;;5004151;28;20049;-58
2022/08/24 04:01:43;;;;;;;67.93;60.92;;;18.10;99.90;;;;;;5003585;28;20046;-58
2022/08/24 04:04:09;;;;;;;73.95;66.35;;;18.10;99.90;;;;;;5003979;28;20046;-57
2022/08/24 04:06:36;;;;;;;69.53;62.05;;;18.10;99.90;;;;;;5003135;28;20427;-57
2022/08/24 04:09:03;;;;;;;71.05;63.53;;;18.00;99.90;;;;;;4986602;28;20045;-58
2022/08/24 04:11:29;;;;;;;72.72;65.05;;;18.10;99.90;;;;;;4985232;28;20065;-57
2022/08/24 04:13:57;;;;;;;70.32;63.13;;;18.20;99.90;;;;;;5002977;28;20638;-58
2022/08/24 04:16:25;;;;;;;70.70;63.38;;;18.10;99.90;;;;;;5003588;28;20579;-58
2022/08/24 04:18:51;;;;;;;66.95;60.05;;;18.10;99.90;;;;;;5003435;28;20061;-57
2022/08/24 04:21:23;;;;;;;65.43;58.78;;;18.20;99.90;;;;;;5002945;28;20626;-58
2022/08/24 04:23:51;;;;;;;62.53;56.28;;;18.30;99.90;;;;;;5003284;28;20068;-57
2022/08/24 04:26:17;;;;;;;70.03;62.58;;;18.20;99.90;;;;;;5003117;28;20049;-57
2022/08/24 04:28:43;;;;;;;69.47;62.30;;;18.20;99.90;;;;;;5002451;28;20160;-58
2022/08/24 04:31:09;;;;;;;67.65;60.78;;;18.30;99.90;;;;;;5003125;28;20677;-57
2022/08/24 04:33:35;;;;;;;65.38;58.72;;;18.30;99.90;;;;;;5002556;28;20058;-55
2022/08/24 04:36:01;;;;;;;62.95;56.75;;;18.30;99.90;;;;;;5003385;28;20125;-58
2022/08/24 04:38:28;;;;;;;64.97;58.40;;;18.30;99.90;;;;;;5002598;28;20140;-58
2022/08/24 04:40:54;;;;;;;68.97;61.92;;;18.40;99.90;;;;;;5003079;28;21180;-58
2022/08/24 04:43:20;;;;;;;64.53;58.20;;;18.30;99.90;;;;;;5002289;28;20108;-58
2022/08/24 04:45:47;;;;;;;64.40;58.00;;;18.30;99.90;;;;;;5002498;28;20042;-58
2022/08/24 04:48:14;;;;;;;65.82;59.20;;;18.30;99.90;;;;;;5003109;28;20041;-57
2022/08/24 04:50:41;;;;;;;64.15;57.65;;;18.20;99.90;;;;;;5002979;28;20053;-58
2022/08/24 04:53:08;;;;;;;62.53;56.03;;;18.20;99.90;;;;;;5001976;28;20049;-58
2022/08/24 04:55:42;;;;;;;63.47;57.08;;;18.20;99.90;;;;;;5003453;28;20052;-58
2022/08/24 04:58:08;;;;;;;64.95;58.22;;;18.20;99.90;;;;;;5002562;28;20078;-58
2022/08/24 05:00:34;;;;;;;61.20;54.88;;;18.20;99.90;;;;;;5002185;28;20096;-53
2022/08/24 05:03:00;;;;;;;66.30;59.45;;;18.40;99.90;;;;;;5003062;28;20037;-58
2022/08/24 05:05:25;;;;;;;62.58;56.35;;;18.30;99.90;;;;;;5002476;28;20120;-58
2022/08/24 05:07:51;;;;;;;62.20;55.92;;;18.30;99.90;;;;;;5002633;28;20046;-58
2022/08/24 05:10:17;;;;;;;67.18;60.13;;;18.30;99.90;;;;;;5002074;28;20096;-58
2022/08/24 05:12:43;;;;;;;65.45;58.70;;;18.20;99.90;;;;;;5001884;28;20042;-58
2022/08/24 05:15:10;;;;;;;63.45;57.00;;;18.30;99.90;;;;;;5002770;28;20050;-56
2022/08/24 05:17:36;;;;;;;63.78;57.10;;;18.30;99.90;;;;;;5001735;28;20054;-57
2022/08/24 05:20:02;;;;;;;63.45;56.97;;;18.40;99.90;;;;;;5002979;28;20041;-58
2022/08/24 05:22:28;;;;;;;63.17;56.70;;;18.40;99.90;;;;;;5002369;28;20045;-58
2022/08/24 05:24:53;;;;;;;62.72;56.40;;;18.40;99.90;;;;;;5002551;28;20034;-58
2022/08/24 05:27:19;;;;;;;62.33;56.15;;;18.50;99.90;;;;;;4967338;28;20601;-58
2022/08/24 05:29:45;;;;;;;63.97;57.33;;;18.50;99.90;;;;;;4984534;28;20133;-58
2022/08/24 05:32:11;;;;;;;66.05;59.35;;;18.60;99.90;;;;;;4984547;28;20111;-59
2022/08/24 05:34:37;;;;;;;64.70;58.10;;;18.60;99.90;;;;;;5001550;28;20702;-58
2022/08/24 05:37:03;;;;;;;60.72;54.58;;;18.60;99.90;;;;;;5002461;28;20492;-57
2022/08/24 05:39:30;;;;;;;65.13;58.70;;;18.70;99.90;;;;;;5002272;28;20042;-58
2022/08/24 05:41:58;;;;;;;62.35;55.97;;;18.90;99.90;;;;;;5001324;28;20057;-57
2022/08/24 05:44:24;;;;;;;62.40;55.75;;;19.10;99.90;;;;;;5001745;28;20088;-58
2022/08/24 05:46:49;;;;;;;61.63;53.22;;;19.50;99.90;;;;;;5002114;28;20077;-58
2022/08/24 05:49:15;;;;;;;58.65;52.38;;;20.00;99.90;;;;;;5002173;28;20050;-59
2022/08/24 05:51:41;;;;;;;62.67;54.03;;;20.50;99.90;;;;;;5001598;28;20038;-58
2022/08/24 05:54:08;;;;;;;60.85;54.67;;;20.80;99.90;;;;;;5001770;28;20041;-58
2022/08/24 05:56:34;;;;;;;59.30;53.38;;;21.00;99.90;;;;;;5001845;28;20605;-58
2022/08/24 05:59:00;;;;;;;60.25;54.00;;;21.30;99.90;;;;;;5002103;28;20129;-58
2022/08/24 06:01:27;;;;;;;55.28;49.85;;;21.70;99.90;;;;;;5001530;28;20099;-58
2022/08/24 06:03:54;;;;;;;55.28;49.15;;;21.90;99.90;;;;;;5002954;28;20065;-59
2022/08/24 06:06:22;;;;;;;56.92;51.00;;;22.30;99.90;;;;;;5005642;28;20050;-58
2022/08/24 06:08:50;;;;;;;57.80;51.75;;;22.20;99.90;;;;;;5005390;28;20033;-59
2022/08/24 06:11:23;;;;;;;55.78;49.92;;;22.50;99.90;;;;;;5005173;28;20085;-58
2022/08/24 06:13:52;;;;;;;55.53;49.92;;;22.50;99.90;;;;;;5005814;28;20424;-57
2022/08/24 06:16:18;;;;;;;54.53;49.03;;;22.80;99.90;;;;;;5005632;28;20049;-58
2022/08/24 06:18:43;;;;;;;55.90;50.22;;;22.80;99.90;;;;;;5005742;28;20489;-58
2022/08/24 06:21:13;;;;;;;54.10;48.67;;;23.00;99.90;;;;;;5005689;28;20184;-58
2022/08/24 06:23:39;;;;;;;50.55;45.30;;;23.20;99.90;;;;;;5004914;28;20038;-58
2022/08/24 06:28:51;;;;;;;52.45;47.05;;;23.60;99.90;;;;;;5004996;28;20064;-58
2022/08/24 06:31:18;;;;;;;55.33;49.60;;;23.80;99.90;;;;;;4987384;28;20053;-59
2022/08/24 06:33:44;;;;;;;52.63;47.22;;;23.90;99.90;;;;;;5004583;28;20049;-58
2022/08/24 06:36:10;;;;;;;50.55;45.63;;;24.00;99.90;;;;;;5005500;28;20037;-59
2022/08/24 06:38:36;;;;;;;53.40;48.05;;;24.20;99.90;;;;;;4993643;28;20111;-58
2022/08/24 06:41:02;;;;;;;52.53;47.20;;;24.50;99.90;;;;;;5008799;28;20050;-58
2022/08/24 06:43:28;;;;;;;51.33;46.20;;;24.70;99.90;;;;;;5005455;28;20042;-59
2022/08/24 06:45:55;;;;;;;48.88;44.08;;;24.80;99.90;;;;;;5004463;28;20419;-58
2022/08/24 06:48:22;;;;;;;48.50;43.78;;;25.00;99.90;;;;;;5009850;28;20044;-59
2022/08/24 06:50:48;;;;;;;51.90;46.90;;;25.10;99.90;;;;;;5007797;28;20060;-58
2022/08/24 06:53:15;;;;;;;51.58;46.15;;;24.80;99.90;;;;;;5012362;28;20089;-58
2022/08/24 06:55:52;;;;;;;49.35;44.47;;;24.70;99.90;;;;;;5013841;28;20048;-58
2022/08/24 06:58:19;;;;;;;50.35;45.33;;;24.80;99.90;;;;;;5013291;28;20499;-59
2022/08/24 07:00:45;;;;;;;49.30;44.40;;;24.70;99.90;;;;;;5014543;28;20046;-58
2022/08/24 07:03:11;;;;;;;48.15;43.15;;;25.00;99.90;;;;;;4995130;28;20627;-58
2022/08/24 07:05:37;;;;;;;48.75;43.80;;;25.10;99.90;;;;;;5014675;28;20052;-56
2022/08/24 07:08:04;;;;;;;48.20;43.38;;;25.20;99.90;;;;;;5010881;28;20489;-58
2022/08/24 07:10:30;;;;;;;49.10;44.35;;;25.10;99.90;;;;;;5012946;28;20045;-58
2022/08/24 07:12:56;;;;;;;48.00;43.08;;;24.70;99.90;;;;;;5002674;28;20085;-59
2022/08/24 07:15:23;;;;;;;49.28;44.35;;;24.80;99.90;;;;;;5011654;28;20538;-58
2022/08/24 07:17:50;;;;;;;50.95;45.45;;;24.90;99.90;;;;;;5008551;28;20054;-58
2022/08/24 07:20:16;;;;;;;47.40;42.75;;;24.80;99.90;;;;;;5002674;28;20046;-59
2022/08/24 07:22:43;;;;;;;47.55;42.53;;;25.00;99.90;;;;;;5004150;28;20548;-59
2022/08/24 07:25:11;;;;;;;45.30;40.65;;;25.30;99.90;;;;;;5004815;28;20082;-58
2022/08/24 07:27:37;;;;;;;43.35;38.97;;;25.50;99.90;;;;;;5016310;28;20042;-57
2022/08/24 07:30:03;;;;;;;41.85;37.75;;;25.40;99.90;;;;;;5014968;28;20056;-59
2022/08/24 07:32:29;;;;;;;39.03;34.72;;;25.40;99.90;;;;;;5013793;28;20037;-59
2022/08/24 07:34:55;;;;;;;40.33;36.17;;;25.90;99.90;;;;;;5013427;28;20045;-58
2022/08/24 07:37:20;;;;;;;35.20;31.63;;;26.10;99.90;;;;;;5014265;28;20374;-58
2022/08/24 07:39:46;;;;;;;37.45;33.67;;;26.60;99.90;;;;;;5013066;28;20109;-58
2022/08/24 07:42:12;;;;;;;36.72;33.33;;;26.40;99.90;;;;;;5012835;28;20037;-58
2022/08/24 07:44:38;;;;;;;30.67;27.67;;;26.50;99.90;;;;;;4996564;28;20057;-58
2022/08/24 07:47:04;;;;;;;24.88;22.27;;;27.20;99.90;;;;;;5010290;28;20030;-58
2022/08/24 07:49:31;;;;;;;25.00;22.33;;;27.50;99.90;;;;;;5014277;28;20041;-58
2022/08/24 07:51:57;;;;;;;25.08;22.50;;;27.80;99.90;;;;;;5012677;28;20394;-58
2022/08/24 07:54:22;;;;;;;24.13;21.55;;;27.90;99.90;;;;;;5011805;28;20513;-58
2022/08/24 07:56:49;;;;;;;23.88;21.45;;;27.70;99.90;;;;;;5010491;28;20576;-58
2022/08/24 07:59:15;;;;;;;25.92;21.38;;;27.70;99.90;;;;;;5004086;28;20863;-57
2022/08/24 08:01:41;;;;;;;21.52;19.25;;;27.80;99.90;;;;;;5003406;28;20125;-57
2022/08/24 08:04:08;;;;;;;20.95;18.85;;;28.10;99.90;;;;;;5003866;28;20556;-60
2022/08/24 08:06:33;;;;;;;21.77;16.60;;;28.00;99.90;;;;;;5003245;28;20041;-58
2022/08/24 08:09:04;;;;;;;18.20;16.23;;;28.20;99.90;;;;;;5003460;28;20073;-59
2022/08/24 08:11:29;;;;;;;15.30;13.70;;;28.30;99.90;;;;;;5002601;28;20462;-57
2022/08/24 08:13:55;;;;;;;17.90;15.95;;;28.50;99.90;;;;;;5003295;28;20137;-57
2022/08/24 08:16:21;;;;;;;21.08;17.40;;;28.40;99.90;;;;;;5019646;28;20041;-57
2022/08/24 08:18:46;;;;;;;20.75;18.00;;;28.10;99.90;;;;;;5022754;28;20052;-57
2022/08/24 08:24:16;;;;;;;19.58;17.67;;;27.70;99.90;;;;;;5022725;28;20059;-57
2022/08/24 08:26:49;;;;;;;18.38;16.58;;;27.80;99.90;;;;;;5021762;28;20107;-56
2022/08/24 08:29:17;;;;;;;15.77;14.07;;;28.10;99.90;;;;;;5023254;28;20045;-56
2022/08/24 08:31:42;;;;;;;13.32;11.30;;;28.30;99.90;;;;;;5022448;28;20092;-57
2022/08/24 08:34:08;;;;;;;14.18;12.68;;;28.50;99.90;;;;;;5021690;28;20084;-57
2022/08/24 08:36:35;;;;;;;12.35;10.35;;;28.50;99.90;;;;;;5023468;28;20041;-54
2022/08/24 08:39:00;;;;;;;7.22;6.18;;;28.40;99.90;;;;;;5003980;28;20044;-56
2022/08/24 08:42:09;;;;;;;15.52;7.88;;;28.50;99.90;;;;;;4985367;28;20546;-57
2022/08/24 08:44:55;;;;;;;12.45;10.70;;;28.70;99.90;;;;;;4984461;28;20143;-57
2022/08/24 08:47:42;;;;;;;11.27;7.63;;;28.80;99.90;;;;;;5002660;28;20403;-57
2022/08/24 08:50:20;;;;;;;11.73;9.10;;;29.10;99.90;;;;;;5002319;28;20496;-57
2022/08/24 08:53:23;;;;;;;12.88;10.88;;;29.20;99.90;;;;;;5002689;28;20551;-56
2022/08/24 08:56:22;;;;;;;12.30;11.00;;;29.20;99.90;;;;;;5002027;28;20050;-56
2022/08/24 08:59:14;;;;;;;13.98;12.05;;;29.10;99.90;;;;;;5001499;28;20045;-56
2022/08/24 09:01:50;;;;;;;11.07;8.85;;;29.20;99.90;;;;;;5002396;28;20523;-56
2022/08/24 09:04:33;;;;;;;10.50;9.45;;;29.20;99.90;;;;;;5002540;28;20049;-56
2022/08/24 09:07:02;;;;;;;8.82;7.70;;;29.30;99.90;;;;;;5002073;28;20058;-56
2022/08/24 09:09:45;;;;;;;8.02;6.43;;;29.40;99.90;;;;;;5002501;28;20164;-57
2022/08/24 09:12:20;;;;;;;7.95;6.47;;;29.50;99.90;;;;;;5001152;28;20046;-56
2022/08/24 09:15:01;;;;;;;7.15;6.25;;;29.60;99.90;;;;;;5002295;28;20456;-56
2022/08/24 09:17:43;;;;;;;8.68;6.55;;;29.90;99.90;;;;;;5001804;28;20048;-56
2022/08/24 09:21:00;;;;;;;10.07;7.53;;;30.10;99.90;;;;;;5002613;28;20053;-57
2022/08/24 09:23:37;;;;;;;10.52;8.20;;;30.00;99.90;;;;;;4971047;28;20118;-56
2022/08/24 09:26:08;;;;;;;8.55;7.43;;;30.00;99.90;;;;;;5001749;28;20196;-57
2022/08/24 09:28:46;;;;;;;11.63;7.35;;;30.10;99.90;;;;;;5002796;28;20038;-56
2022/08/24 09:31:27;;;;;;;9.63;8.63;;;30.30;99.90;;;;;;5001671;28;20058;-56
2022/08/24 09:34:27;;;;;;;10.88;8.52;;;30.40;99.90;;;;;;5002109;28;20054;-55
2022/08/24 09:36:53;;;;;;;10.68;7.90;;;30.40;99.90;;;;;;5002235;28;20045;-56
2022/08/24 09:39:52;;;;;;;11.60;10.35;;;30.40;99.90;;;;;;5001403;28;20046;-56
2022/08/24 09:42:50;;;;;;;14.05;12.55;;;30.60;99.90;;;;;;5001620;28;20077;-57
2022/08/24 09:45:41;;;;;;;10.68;9.60;;;30.60;99.90;;;;;;4985035;28;20089;-57
2022/08/24 09:48:38;;;;;;;14.10;12.55;;;30.70;99.90;;;;;;5001890;28;20042;-59
2022/08/24 09:51:31;;;;;;;15.10;13.55;;;30.30;99.90;;;;;;5002554;28;20042;-57
2022/08/24 09:54:17;;;;;;;12.00;10.70;;;30.00;99.90;;;;;;4983770;28;20103;-56
2022/08/24 09:56:43;;;;;;;10.98;8.98;;;30.30;99.90;;;;;;5000648;28;20050;-56
2022/08/24 09:59:49;;;;;;;12.32;11.10;;;30.70;99.90;;;;;;4984370;28;20044;-56
2022/08/24 10:02:35;;;;;;;15.38;11.35;;;30.70;99.90;;;;;;4984147;28;20493;-57
2022/08/24 10:05:10;;;;;;;12.10;10.52;;;30.60;99.90;;;;;;5002198;28;20080;-56
2022/08/24 10:07:49;;;;;;;10.10;8.23;;;30.90;99.90;;;;;;5000967;28;20455;-57
2022/08/24 10:10:55;;;;;;;13.88;12.38;;;31.20;99.90;;;;;;5001531;28;20085;-56
2022/08/24 10:14:00;;;;;;;11.75;10.13;;;31.00;99.90;;;;;;5000572;28;20054;-57
2022/08/24 10:17:01;;;;;;;;;;;31.20;99.90;;;;;;5002424;28;20041;-56
2022/08/24 10:19:57;;;;;;;9.98;8.55;;;31.50;99.90;;;;;;4902640;29;20314;-57
2022/08/24 10:22:30;;;;;;;9.35;7.75;;;31.60;99.90;;;;;;5001149;28;20532;-56
2022/08/24 10:25:23;;;;;;;9.77;7.90;;;31.90;99.90;;;;;;5001784;28;20050;-57
2022/08/24 10:28:10;;;;;;;12.77;8.17;;;32.20;99.90;;;;;;5001736;28;20315;-57
2022/08/24 10:31:03;;;;;;;9.35;6.60;;;32.20;99.90;;;;;;5001798;28;20046;-57
2022/08/24 10:33:55;;;;;;;9.38;6.75;;;32.20;99.90;;;;;;5001745;28;20447;-57
2022/08/24 10:36:58;;;;;;;8.55;7.70;;;32.50;99.90;;;;;;5001798;28;20042;-55
2022/08/24 10:39:42;;;;;;;7.72;6.35;;;32.60;99.90;;;;;;5001218;28;20050;-57
2022/08/24 10:45:38;;;;;;;10.85;7.65;;;32.60;99.90;;;;;;5001864;28;20451;-57
2022/08/24 10:48:29;;;;;;;6.68;4.88;;;32.20;99.90;;;;;;5001795;28;20049;-57
2022/08/24 10:51:00;;;;;;;5.13;3.70;;;31.60;99.90;;;;;;4984036;28;20552;-57
2022/08/24 10:53:31;;;;;;;4.50;3.35;;;31.10;99.90;;;;;;4985406;28;20046;-57
2022/08/24 10:56:07;;;;;;;7.43;4.78;;;31.10;99.90;;;;;;4984466;28;20133;-57
2022/08/24 10:59:27;;;;;;;6.93;4.57;;;30.80;99.90;;;;;;4985181;28;20046;-57
2022/08/24 11:01:58;;;;;;;5.75;3.60;;;31.20;99.90;;;;;;4943739;29;20082;-46
2022/08/24 11:04:29;;;;;;;6.53;4.03;;;31.50;99.90;;;;;;4983877;28;20225;-55
2022/08/24 11:07:13;;;;;;;9.57;4.65;;;32.10;99.90;;;;;;4999313;28;20042;-55
2022/08/24 11:09:42;;;;;;;;;;;32.50;99.90;;;;;;4985493;28;20046;-56
2022/08/24 11:12:20;;;;;;;6.03;3.67;;;32.10;99.90;;;;;;4984502;28;19933;-55
2022/08/24 11:14:47;;;;;;;7.68;4.45;;;32.80;99.90;;;;;;4985213;28;20744;-54
2022/08/24 11:17:22;;;;;;;6.13;4.65;;;32.80;99.90;;;;;;4967769;28;20124;-55
2022/08/24 11:19:49;;;;;;;7.60;3.70;;;32.70;99.90;;;;;;4984376;28;20488;-54
2022/08/24 11:22:55;;;;;;;5.75;4.88;;;32.60;99.90;;;;;;4984953;28;20473;-56
2022/08/24 11:25:30;;;;;;;7.20;4.70;;;32.50;99.90;;;;;;4983635;28;20120;-56
2022/08/24 11:28:03;;;;;;;4.15;3.03;;;32.20;99.90;;;;;;4984786;28;20058;-54
2022/08/24 11:30:30;;;;;;;6.30;3.50;;;32.20;99.90;;;;;;4984130;28;20039;-55
2022/08/24 11:33:01;;;;;;;6.30;3.58;;;32.20;99.90;;;;;;4984489;28;20108;-56
2022/08/24 11:35:30;;;;;;;5.28;3.10;;;32.00;99.90;;;;;;4967370;28;20038;-55
2022/08/24 11:38:05;;;;;;;5.55;3.72;;;32.30;99.90;;;;;;4984223;28;20639;-56
2022/08/24 11:40:36;;;;;;;4.18;3.03;;;31.60;99.90;;;;;;4984572;28;20094;-54
2022/08/24 11:43:08;;;;;;;4.70;3.05;;;32.00;99.90;;;;;;4984331;28;20605;-55
2022/08/24 11:45:43;;;;;;;8.95;4.05;;;32.30;99.90;;;;;;4985032;28;20050;-55
2022/08/24 11:48:43;;;;;;;4.78;2.85;;;32.40;99.90;;;;;;4984590;28;20045;-56
2022/08/24 11:51:24;;;;;;;6.72;3.05;;;32.40;99.90;;;;;;4966927;28;20129;-55
2022/08/24 11:54:02;;;;;;;6.63;2.78;;;31.70;99.90;;;;;;4983576;28;20080;-55
2022/08/24 11:56:42;;;;;;;5.35;2.55;;;31.70;99.90;;;;;;4983612;28;20124;-55
2022/08/24 11:59:16;;;;;;;5.65;3.63;;;31.80;99.90;;;;;;4966813;28;20062;-56
2022/08/24 12:01:49;;;;;;;7.65;3.40;;;31.40;99.90;;;;;;4983254;28;20084;-56
2022/08/24 12:04:58;;;;;;;4.28;2.80;;;31.40;99.90;;;;;;4984350;28;20100;-56
2022/08/24 12:08:02;;;;;;;5.13;2.50;;;31.50;99.90;;;;;;5002956;28;20113;-55
2022/08/24 12:10:41;;;;;;;3.20;2.10;;;31.70;99.90;;;;;;5002707;28;20065;-56
2022/08/24 12:13:14;;;;;;;5.85;3.10;;;32.10;99.90;;;;;;5003423;28;20672;-56
2022/08/24 12:16:11;;;;;;;4.57;2.38;;;31.60;99.90;;;;;;5003721;28;20148;-57
2022/08/24 12:19:10;;;;;;;6.03;2.70;;;31.60;99.90;;;;;;5003067;28;20050;-56
2022/08/24 12:21:39;;;;;;;5.30;2.88;;;31.40;99.90;;;;;;5002920;28;20096;-56
2022/08/24 12:24:13;;;;;;;5.45;2.78;;;31.90;99.90;;;;;;5002448;28;20099;-57
2022/08/24 12:26:49;;;;;;;4.63;2.80;;;31.80;99.90;;;;;;5002512;28;20390;-55
2022/08/24 12:29:21;;;;;;;10.13;2.83;;;32.00;99.90;;;;;;5002492;28;20129;-55
2022/08/24 12:32:09;;;;;;;5.95;3.17;;;31.20;99.90;;;;;;4985953;28;20124;-55
2022/08/24 12:34:49;;;;;;;4.95;2.90;;;31.00;99.90;;;;;;5003793;28;20149;-57
2022/08/24 12:37:51;;;;;;;3.55;2.50;;;31.40;99.90;;;;;;5003520;28;20485;-55
2022/08/24 12:40:43;;;;;;;6.57;3.20;;;31.50;99.90;;;;;;4996673;28;20132;-55
2022/08/24 12:43:31;;;;;;;5.40;3.00;;;32.00;99.90;;;;;;4985019;28;20072;-55
2022/08/24 12:46:00;;;;;;;7.43;3.30;;;31.90;99.90;;;;;;4989201;28;20562;-54
2022/08/24 12:48:42;;;;;;;4.47;3.25;;;32.00;99.90;;;;;;5002788;28;20076;-57
2022/08/24 12:51:50;;;;;;;5.78;3.25;;;32.00;99.90;;;;;;5002578;28;20042;-54
2022/08/24 12:54:37;;;;;;;4.57;3.28;;;32.20;99.90;;;;;;5002703;28;20054;-58
2022/08/24 12:57:32;;;;;;;4.80;3.20;;;32.50;99.90;;;;;;5002391;28;20056;-55
2022/08/24 13:00:19;;;;;;;4.90;3.10;;;32.70;99.90;;;;;;5001274;28;20037;-54
2022/08/24 13:03:00;;;;;;;4.22;2.92;;;32.50;99.90;;;;;;5002672;28;20056;-54
2022/08/24 13:05:39;;;;;;;5.40;3.00;;;32.60;99.90;;;;;;5001883;28;20033;-55
2022/08/24 13:08:12;;;;;;;6.35;2.65;;;32.70;99.90;;;;;;5001769;28;20539;-56
2022/08/24 13:10:44;;;;;;;3.97;2.58;;;32.50;99.90;;;;;;4981716;28;20046;-57